createdAt,value
2023-04-04T00:00:54.026Z,3.50
2023-04-04T00:03:29.161Z,3.49
2023-04-04T00:05:57.365Z,3.49
2023-04-04T00:08:25.666Z,3.50
2023-04-04T00:11:01.405Z,3.52
2023-04-04T00:13:31.136Z,3.53
2023-04-04T00:15:59.206Z,3.52
2023-04-04T00:18:27.332Z,3.51
2023-04-04T00:20:55.491Z,3.52
2023-04-04T00:23:27.709Z,3.51
2023-04-04T00:25:56.095Z,3.52
2023-04-04T00:28:24.225Z,3.51
2023-04-04T00:30:52.366Z,3.52
2023-04-04T00:33:21.749Z,3.52
2023-04-04T00:35:50.348Z,3.53
2023-04-04T00:38:19.157Z,3.53
2023-04-04T00:40:48.014Z,3.52
2023-04-04T00:43:17.167Z,3.52
2023-04-04T00:45:46.271Z,3.54
2023-04-04T00:48:17.962Z,3.55
2023-04-04T00:50:46.023Z,3.56
2023-04-04T00:53:14.308Z,3.57
2023-04-04T00:55:44.186Z,3.57
2023-04-04T00:58:14.209Z,3.56
2023-04-04T01:00:43.021Z,3.56
2023-04-04T01:03:25.027Z,3.59
2023-04-04T01:05:55.029Z,3.61
2023-04-04T01:08:23.510Z,3.62
2023-04-04T01:10:52.445Z,3.61
2023-04-04T01:13:21.280Z,3.62
2023-04-04T01:15:49.580Z,3.60
2023-04-04T01:18:19.176Z,3.60
2023-04-04T01:20:55.668Z,3.61
2023-04-04T01:23:24.996Z,3.63
2023-04-04T01:25:59.877Z,3.64
2023-04-04T01:28:27.977Z,3.67
2023-04-04T01:30:56.905Z,3.70
2023-04-04T01:33:29.423Z,3.71
2023-04-04T01:35:58.335Z,3.73
2023-04-04T01:38:31.517Z,3.74
2023-04-04T01:41:02.626Z,3.75
2023-04-04T01:43:34.761Z,3.74
2023-04-04T01:46:04.140Z,3.72
2023-04-04T01:48:32.429Z,3.71
2023-04-04T01:51:04.896Z,3.72
2023-04-04T01:53:33.859Z,3.72
2023-04-04T01:56:02.591Z,3.71
2023-04-04T01:58:33.784Z,3.68
2023-04-04T02:01:02.118Z,3.65
2023-04-04T02:03:30.820Z,3.61
2023-04-04T02:05:58.873Z,3.57
2023-04-04T02:08:28.880Z,3.53
2023-04-04T02:10:57.917Z,3.50
2023-04-04T02:13:31.458Z,3.50
2023-04-04T02:16:04.559Z,3.49
2023-04-04T02:18:33.665Z,3.48
2023-04-04T02:21:01.832Z,3.46
2023-04-04T02:23:31.361Z,3.45
2023-04-04T02:25:59.730Z,3.44
2023-04-04T02:28:32.243Z,3.44
2023-04-04T02:31:03.990Z,3.43
2023-04-04T02:33:33.298Z,3.44
2023-04-04T02:36:07.718Z,3.44
2023-04-04T02:38:36.801Z,3.44
2023-04-04T02:41:06.434Z,3.43
2023-04-04T02:43:34.542Z,3.41
2023-04-04T02:46:14.448Z,3.41
2023-04-04T02:48:47.385Z,3.42
2023-04-04T02:51:15.933Z,3.41
2023-04-04T02:53:43.989Z,3.37
2023-04-04T02:56:21.364Z,3.36
2023-04-04T02:58:50.570Z,3.33
2023-04-04T03:01:19.138Z,3.33
2023-04-04T03:03:47.942Z,3.33
2023-04-04T03:06:16.211Z,3.32
2023-04-04T03:08:44.233Z,3.31
2023-04-04T03:11:13.594Z,3.31
2023-04-04T03:13:42.048Z,3.31
2023-04-04T03:16:10.479Z,3.32
2023-04-04T03:18:48.624Z,3.32
2023-04-04T03:21:20.207Z,3.32
2023-04-04T03:23:49.020Z,3.31
2023-04-04T03:26:17.149Z,3.29
2023-04-04T03:28:46.153Z,3.27
2023-04-04T03:31:14.959Z,3.27
2023-04-04T03:33:45.294Z,3.25
2023-04-04T03:36:13.500Z,3.25
2023-04-04T03:38:44.772Z,3.25
2023-04-04T03:41:13.109Z,3.27
2023-04-04T03:43:43.300Z,3.27
2023-04-04T03:46:11.480Z,3.27
2023-04-04T03:48:39.739Z,3.26
2023-04-04T03:51:11.297Z,3.28
2023-04-04T03:53:40.929Z,3.29
2023-04-04T03:56:12.617Z,3.29
2023-04-04T03:58:43.054Z,3.28
2023-04-04T04:01:13.595Z,3.27
2023-04-04T04:03:45.372Z,3.25
2023-04-04T04:06:13.496Z,3.20
2023-04-04T04:08:41.524Z,3.18
2023-04-04T04:11:12.560Z,3.16
2023-04-04T04:13:40.725Z,3.15
2023-04-04T04:16:09.280Z,3.16
2023-04-04T04:18:38.138Z,3.17
2023-04-04T04:21:07.645Z,3.19
2023-04-04T04:23:36.816Z,3.18
2023-04-04T04:26:05.496Z,3.20
2023-04-04T04:28:34.643Z,3.22
2023-04-04T04:31:07.632Z,3.26
2023-04-04T04:33:36.839Z,3.27
2023-04-04T04:36:08.265Z,3.28
2023-04-04T04:39:02.444Z,3.29
2023-04-04T04:41:33.512Z,3.30
2023-04-04T04:44:02.311Z,3.31
2023-04-04T04:46:32.325Z,3.32
2023-04-04T04:49:06.567Z,3.34
2023-04-04T04:51:36.325Z,3.31
2023-04-04T04:54:04.469Z,3.29
2023-04-04T04:56:34.354Z,3.29
2023-04-04T04:59:09.297Z,3.29
2023-04-04T05:01:42.996Z,3.28
2023-04-04T05:04:11.380Z,3.28
2023-04-04T05:06:45.087Z,3.29
2023-04-04T05:09:15.776Z,3.30
2023-04-04T05:11:47.919Z,3.31
2023-04-04T05:14:16.522Z,3.35
2023-04-04T05:16:53.776Z,3.35
2023-04-04T05:19:22.942Z,3.35
2023-04-04T05:21:54.309Z,3.32
2023-04-04T05:24:43.898Z,3.31
2023-04-04T05:27:14.756Z,3.31
2023-04-04T05:29:48.341Z,3.30
2023-04-04T05:32:19.283Z,3.28
2023-04-04T05:34:54.143Z,3.25
2023-04-04T05:37:23.106Z,3.26
2023-04-04T05:39:53.972Z,3.27
2023-04-04T05:42:23.399Z,3.24
2023-04-04T05:44:53.404Z,3.23
2023-04-04T05:47:23.027Z,3.24
2023-04-04T05:49:52.315Z,3.24
2023-04-04T05:52:22.017Z,3.24
2023-04-04T05:54:51.521Z,3.28
2023-04-04T05:57:26.257Z,3.30
2023-04-04T06:00:00.692Z,3.31
2023-04-04T06:02:32.259Z,3.33
2023-04-04T06:05:04.261Z,3.33
2023-04-04T06:07:36.086Z,3.31
2023-04-04T06:10:04.709Z,3.29
2023-04-04T06:12:35.841Z,3.28
2023-04-04T06:15:07.853Z,3.29
2023-04-04T06:17:38.070Z,3.31
2023-04-04T06:20:08.562Z,3.35
2023-04-04T06:22:36.965Z,3.38
2023-04-04T06:25:06.614Z,3.40
2023-04-04T06:27:36.512Z,3.41
2023-04-04T06:30:08.969Z,3.39
2023-04-04T06:32:45.301Z,3.39
2023-04-04T06:35:20.105Z,3.41
2023-04-04T06:37:56.998Z,3.44
2023-04-04T06:40:27.847Z,3.48
2023-04-04T06:42:58.445Z,3.50
2023-04-04T06:45:39.270Z,3.52
2023-04-04T06:48:07.907Z,3.54
2023-04-04T06:50:36.811Z,3.54
2023-04-04T06:53:08.684Z,3.53
2023-04-04T06:55:37.225Z,3.54
2023-04-04T06:58:10.539Z,3.54
2023-04-04T07:00:38.979Z,3.52
2023-04-04T07:03:08.096Z,3.51
2023-04-04T07:05:39.678Z,3.50
2023-04-04T07:08:08.805Z,3.50
2023-04-04T07:10:38.527Z,3.53
2023-04-04T07:13:10.152Z,3.58
2023-04-04T07:15:38.369Z,3.62
2023-04-04T07:18:07.976Z,3.65
2023-04-04T07:20:36.537Z,3.67
2023-04-04T07:23:04.832Z,3.70
2023-04-04T07:25:33.139Z,3.74
2023-04-04T07:28:11.859Z,3.76
2023-04-04T07:30:42.371Z,3.79
2023-04-04T07:33:11.711Z,3.81
2023-04-04T07:35:40.203Z,3.84
2023-04-04T07:38:17.662Z,3.85
2023-04-04T07:40:45.792Z,3.87
2023-04-04T07:43:14.193Z,3.85
2023-04-04T07:45:42.261Z,3.85
2023-04-04T07:48:10.371Z,3.83
2023-04-04T07:50:38.636Z,3.83
2023-04-04T07:53:07.591Z,3.83
2023-04-04T07:55:35.680Z,3.83
2023-04-04T07:58:04.410Z,3.81
2023-04-04T08:00:32.696Z,3.81
2023-04-04T08:03:20.699Z,3.82
2023-04-04T08:05:49.161Z,3.86
2023-04-04T08:08:17.389Z,3.87
2023-04-04T08:10:46.886Z,3.89
2023-04-04T08:13:16.102Z,3.90
2023-04-04T08:15:44.307Z,3.91
2023-04-04T08:18:12.526Z,3.91
2023-04-04T08:20:41.587Z,3.91
2023-04-04T08:23:10.076Z,3.92
2023-04-04T08:25:39.481Z,3.91
2023-04-04T08:28:08.341Z,3.92
2023-04-04T08:30:36.876Z,3.93
2023-04-04T08:33:13.021Z,3.95
2023-04-04T08:35:41.517Z,3.98
2023-04-04T08:38:09.633Z,3.99
2023-04-04T08:40:38.842Z,4.01
2023-04-04T08:43:09.454Z,4.01
2023-04-04T08:45:39.442Z,3.99
2023-04-04T08:48:08.003Z,3.97
2023-04-04T08:50:37.098Z,3.99
2023-04-04T08:53:06.368Z,4.01
2023-04-04T08:55:35.536Z,4.05
2023-04-04T08:58:03.899Z,4.09
2023-04-04T09:00:32.515Z,4.11
2023-04-04T09:03:15.680Z,4.14
2023-04-04T09:05:45.001Z,4.16
2023-04-04T09:08:13.887Z,4.18
2023-04-04T09:10:44.266Z,4.21
2023-04-04T09:13:16.124Z,4.23
2023-04-04T09:15:48.212Z,4.25
2023-04-04T09:18:16.728Z,4.27
2023-04-04T09:20:45.528Z,4.30
2023-04-04T09:23:14.524Z,4.34
2023-04-04T09:28:24.068Z,4.42
2023-04-04T09:30:52.426Z,4.46
2023-04-04T09:33:24.798Z,4.47
2023-04-04T09:35:59.973Z,4.48
2023-04-04T09:38:31.420Z,4.50
2023-04-04T09:41:00.000Z,4.54
2023-04-04T09:43:31.060Z,4.56
2023-04-04T09:46:00.463Z,4.59
2023-04-04T09:48:33.431Z,4.60
2023-04-04T09:51:04.123Z,4.60
2023-04-04T09:53:34.359Z,4.60
2023-04-04T09:56:03.682Z,4.63
2023-04-04T09:58:36.189Z,4.67
2023-04-04T10:01:07.610Z,4.71
2023-04-04T10:03:36.856Z,4.75
2023-04-04T10:06:10.888Z,4.77
2023-04-04T10:08:39.645Z,4.80
2023-04-04T10:11:11.871Z,4.83
2023-04-04T10:13:42.149Z,4.85
2023-04-04T10:16:12.241Z,4.87
2023-04-04T10:18:41.573Z,4.89
2023-04-04T10:23:42.875Z,4.96
2023-04-04T10:26:13.118Z,5.01
2023-04-04T10:28:44.445Z,5.05
2023-04-04T10:31:17.582Z,5.10
2023-04-04T10:33:49.093Z,5.16
2023-04-04T10:36:21.946Z,5.20
2023-04-04T10:39:10.136Z,5.23
2023-04-04T10:41:38.274Z,5.27
2023-04-04T10:44:34.041Z,5.31
2023-04-04T10:47:23.474Z,5.36
2023-04-04T10:49:52.097Z,5.43
2023-04-04T10:52:20.972Z,5.48
2023-04-04T10:54:52.946Z,5.50
2023-04-04T10:57:23.343Z,5.51
2023-04-04T11:00:08.921Z,5.50
2023-04-04T11:02:45.885Z,5.48
2023-04-04T11:05:24.423Z,5.48
2023-04-04T11:08:07.580Z,5.48
2023-04-04T11:10:43.428Z,5.52
2023-04-04T11:13:17.406Z,5.56
2023-04-04T11:15:48.299Z,5.61
2023-04-04T11:18:40.470Z,5.66
2023-04-04T11:21:10.409Z,5.69
2023-04-04T11:23:48.591Z,5.71
2023-04-04T11:26:34.475Z,5.75
2023-04-04T11:29:08.183Z,5.79
2023-04-04T11:31:47.463Z,5.80
2023-04-04T11:34:16.689Z,5.80
2023-04-04T11:36:47.544Z,5.78
2023-04-04T11:39:25.781Z,5.75
2023-04-04T11:41:54.265Z,5.73
2023-04-04T11:44:24.124Z,5.73
2023-04-04T11:46:56.046Z,5.74
2023-04-04T11:49:29.136Z,5.75
2023-04-04T11:51:57.480Z,5.77
2023-04-04T11:54:32.629Z,5.80
2023-04-04T11:57:01.676Z,5.78
2023-04-04T11:59:33.398Z,5.76
2023-04-04T12:02:03.265Z,5.77
2023-04-04T12:04:31.885Z,5.78
2023-04-04T12:07:00.563Z,5.80
2023-04-04T12:09:29.509Z,5.80
2023-04-04T12:11:58.122Z,5.80
2023-04-04T12:14:28.017Z,5.80
2023-04-04T12:16:57.628Z,5.79
2023-04-04T12:19:26.674Z,5.76
2023-04-04T12:21:57.470Z,5.74
2023-04-04T12:24:26.813Z,5.76
2023-04-04T12:26:54.980Z,5.77
2023-04-04T12:29:23.242Z,5.80
2023-04-04T12:31:51.676Z,5.81
2023-04-04T12:37:03.938Z,5.83
2023-04-04T12:39:32.272Z,5.82
2023-04-04T12:42:02.576Z,5.83
2023-04-04T12:44:38.230Z,5.84
2023-04-04T12:47:09.000Z,5.85
2023-04-04T12:49:40.791Z,5.85
2023-04-04T12:52:16.815Z,5.83
2023-04-04T12:54:48.754Z,5.81
2023-04-04T12:57:19.573Z,5.80
2023-04-04T12:59:48.445Z,5.80
2023-04-04T13:02:20.076Z,5.80
2023-04-04T13:04:57.647Z,5.79
2023-04-04T13:07:27.512Z,5.79
2023-04-04T13:09:56.583Z,5.79
2023-04-04T13:12:52.864Z,5.80
2023-04-04T13:15:21.295Z,5.81
2023-04-04T13:17:50.508Z,5.83
2023-04-04T13:20:20.408Z,5.84
2023-04-04T13:22:48.508Z,5.84
2023-04-04T13:25:23.471Z,5.86
2023-04-04T13:27:52.405Z,5.88
2023-04-04T13:30:20.445Z,5.92
2023-04-04T13:32:48.812Z,5.95
2023-04-04T13:35:17.973Z,5.99
2023-04-04T13:37:47.469Z,6.03
2023-04-04T13:40:15.620Z,6.06
2023-04-04T13:42:44.113Z,6.10
2023-04-04T13:45:13.645Z,6.14
2023-04-04T13:47:41.788Z,6.16
2023-04-04T13:50:10.556Z,6.18
2023-04-04T13:52:39.098Z,6.20
2023-04-04T13:55:07.298Z,6.22
2023-04-04T13:57:36.222Z,6.22
2023-04-04T14:00:05.734Z,6.22
2023-04-04T14:02:42.422Z,6.22
2023-04-04T14:05:10.524Z,6.24
2023-04-04T14:07:38.865Z,6.23
2023-04-04T14:10:13.797Z,6.21
2023-04-04T14:12:42.994Z,6.21
2023-04-04T14:15:12.394Z,6.21
2023-04-04T14:17:43.342Z,6.23
2023-04-04T14:20:11.840Z,6.24
2023-04-04T14:22:40.109Z,6.25
2023-04-04T14:25:08.834Z,6.24
2023-04-04T14:27:38.822Z,6.24
2023-04-04T14:30:08.207Z,6.24
2023-04-04T14:32:37.902Z,6.22
2023-04-04T14:35:06.369Z,6.20
2023-04-04T14:37:34.793Z,6.18
2023-04-04T14:40:04.211Z,6.15
2023-04-04T14:42:32.933Z,6.12
2023-04-04T14:45:05.304Z,6.09
2023-04-04T14:47:34.967Z,6.06
2023-04-04T14:50:04.319Z,6.04
2023-04-04T14:52:32.579Z,6.02
2023-04-04T14:55:01.202Z,6.01
2023-04-04T14:57:51.947Z,5.98
2023-04-04T15:00:26.731Z,5.98
2023-04-04T15:02:55.100Z,5.97
2023-04-04T15:05:28.720Z,5.97
2023-04-04T15:07:56.784Z,5.97
2023-04-04T15:10:25.241Z,5.96
2023-04-04T15:12:55.357Z,5.96
2023-04-04T15:15:23.835Z,5.97
2023-04-04T15:17:52.798Z,5.97
2023-04-04T15:20:21.905Z,5.97
2023-04-04T15:22:50.719Z,5.96
2023-04-04T15:25:18.776Z,5.96
2023-04-04T15:27:47.896Z,5.95
2023-04-04T15:30:16.210Z,5.97
2023-04-04T15:32:45.452Z,5.97
2023-04-04T15:35:17.832Z,5.97
2023-04-04T15:37:46.534Z,5.98
2023-04-04T15:40:16.074Z,5.99
2023-04-04T15:42:44.853Z,5.99
2023-04-04T15:45:13.227Z,5.98
2023-04-04T15:47:42.436Z,5.96
2023-04-04T15:50:11.966Z,5.96
2023-04-04T15:52:41.903Z,5.96
2023-04-04T15:55:13.643Z,5.96
2023-04-04T15:57:44.847Z,5.94
2023-04-04T16:00:13.985Z,5.93
2023-04-04T16:02:44.054Z,5.92
2023-04-04T16:05:12.773Z,5.92
2023-04-04T16:07:41.068Z,5.93
2023-04-04T16:10:13.482Z,5.92
2023-04-04T16:12:42.166Z,5.91
2023-04-04T16:15:12.558Z,5.89
2023-04-04T16:17:41.020Z,5.87
2023-04-04T16:20:10.387Z,5.84
2023-04-04T16:22:38.629Z,5.80
2023-04-04T16:25:09.108Z,5.77
2023-04-04T16:27:37.794Z,5.74
2023-04-04T16:30:09.630Z,5.71
2023-04-04T16:32:38.579Z,5.68
2023-04-04T16:35:07.086Z,5.66
2023-04-04T16:37:37.276Z,5.65
2023-04-04T16:40:06.834Z,5.65
2023-04-04T16:42:35.178Z,5.65
2023-04-04T16:45:03.557Z,5.66
2023-04-04T16:47:32.011Z,5.66
2023-04-04T16:50:01.592Z,5.65
2023-04-04T16:52:31.392Z,5.62
2023-04-04T16:54:59.710Z,5.61
2023-04-04T16:57:27.970Z,5.60
2023-04-04T16:59:56.106Z,5.59
2023-04-04T17:02:24.301Z,5.57
2023-04-04T17:04:52.794Z,5.57
2023-04-04T17:07:21.431Z,5.56
2023-04-04T17:09:51.619Z,5.56
2023-04-04T17:12:23.142Z,5.56
2023-04-04T17:14:53.847Z,5.56
2023-04-04T17:17:22.162Z,5.54
2023-04-04T17:19:50.216Z,5.53
2023-04-04T17:22:18.420Z,5.51
2023-04-04T17:24:46.564Z,5.48
2023-04-04T17:27:14.618Z,5.45
2023-04-04T17:29:43.208Z,5.43
2023-04-04T17:32:11.961Z,5.41
2023-04-04T17:34:40.844Z,5.40
